createdAt,value
2022-11-10T00:01:11.491Z,23.10
2022-11-10T00:03:40.519Z,22.10
2022-11-10T00:06:10.407Z,27.03
2022-11-10T00:08:37.804Z,22.93
2022-11-10T00:11:08.700Z,25.50
2022-11-10T00:14:01.379Z,26.63
2022-11-10T00:16:47.078Z,31.33
2022-11-10T00:19:14.024Z,24.17
2022-11-10T00:21:44.059Z,26.57
2022-11-10T00:24:11.038Z,28.27
2022-11-10T00:26:38.274Z,27.70
2022-11-10T00:29:05.483Z,26.37
2022-11-10T00:31:32.509Z,27.87
2022-11-10T00:34:00.233Z,27.63
2022-11-10T00:36:27.196Z,29.43
2022-11-10T00:38:54.209Z,27.20
2022-11-10T00:41:22.351Z,26.90
2022-11-10T00:43:49.723Z,30.80
2022-11-10T00:46:17.303Z,28.83
2022-11-10T00:48:44.314Z,27.80
2022-11-10T00:51:25.555Z,30.90
2022-11-10T00:53:54.031Z,26.80
2022-11-10T00:56:23.387Z,25.87
2022-11-10T00:58:50.607Z,25.37
2022-11-10T01:01:20.072Z,23.77
2022-11-10T01:03:47.236Z,27.40
2022-11-10T01:06:17.592Z,24.23
2022-11-10T01:08:45.409Z,23.43
2022-11-10T01:11:20.193Z,22.37
2022-11-10T01:13:47.972Z,20.73
2022-11-10T01:16:26.715Z,23.53
2022-11-10T01:18:59.095Z,21.73
2022-11-10T01:21:27.392Z,21.70
2022-11-10T01:24:06.683Z,18.57
2022-11-10T01:26:33.657Z,18.70
2022-11-10T01:29:00.664Z,16.40
2022-11-10T01:31:30.153Z,15.60
2022-11-10T01:34:00.456Z,15.37
2022-11-10T01:36:34.534Z,20.50
2022-11-10T01:39:04.472Z,17.30
2022-11-10T01:41:31.703Z,14.83
2022-11-10T01:44:14.034Z,16.10
2022-11-10T01:46:44.509Z,16.10
2022-11-10T01:49:13.964Z,16.03
2022-11-10T01:51:57.165Z,14.50
2022-11-10T01:54:35.491Z,14.80
2022-11-10T01:57:12.252Z,13.67
2022-11-10T01:59:48.282Z,18.23
2022-11-10T02:02:36.433Z,14.63
2022-11-10T02:05:07.493Z,16.07
2022-11-10T02:07:40.523Z,13.00
2022-11-10T02:10:19.233Z,14.57
2022-11-10T02:12:51.023Z,15.00
2022-11-10T02:15:22.860Z,13.93
2022-11-10T02:17:49.954Z,11.93
2022-11-10T02:20:21.213Z,14.40
2022-11-10T02:22:48.354Z,13.83
2022-11-10T02:25:22.132Z,13.40
2022-11-10T02:27:49.482Z,14.17
2022-11-10T02:30:17.354Z,13.90
2022-11-10T02:32:46.292Z,12.87
2022-11-10T02:35:14.021Z,14.27
2022-11-10T02:37:41.503Z,12.80
2022-11-10T02:40:10.516Z,13.77
2022-11-10T02:42:51.173Z,12.50
2022-11-10T02:45:18.543Z,13.03
2022-11-10T02:47:45.621Z,12.47
2022-11-10T02:50:15.410Z,11.87
2022-11-10T02:52:44.014Z,12.97
2022-11-10T02:55:11.363Z,14.27
2022-11-10T02:57:38.731Z,12.57
2022-11-10T03:00:08.166Z,13.90
2022-11-10T03:02:35.235Z,13.00
2022-11-10T03:05:02.296Z,13.17
2022-11-10T03:07:29.325Z,15.37
2022-11-10T03:09:56.365Z,17.07
2022-11-10T03:12:23.377Z,15.10
2022-11-10T03:14:50.428Z,13.23
2022-11-10T03:17:17.555Z,14.67
2022-11-10T03:32:13.671Z,13.47
2022-11-10T03:34:40.712Z,15.17
2022-11-10T03:37:07.677Z,13.70
2022-11-10T03:39:34.737Z,16.40
2022-11-10T03:42:01.610Z,14.90
2022-11-10T03:44:28.557Z,12.97
2022-11-10T03:46:55.453Z,16.67
2022-11-10T03:49:22.418Z,13.93
2022-11-10T03:51:49.417Z,15.77
2022-11-10T03:54:16.323Z,14.70
2022-11-10T03:56:43.268Z,17.13
2022-11-10T03:59:10.457Z,14.43
2022-11-10T04:01:37.451Z,13.47
2022-11-10T04:04:04.552Z,13.97
2022-11-10T04:06:50.077Z,15.40
2022-11-10T04:09:17.082Z,15.63
2022-11-10T04:12:02.688Z,15.10
2022-11-10T04:14:48.125Z,14.17
2022-11-10T04:17:15.156Z,15.33
2022-11-10T04:19:42.072Z,14.43
2022-11-10T04:22:28.958Z,13.67
2022-11-10T04:24:55.933Z,14.20
2022-11-10T04:27:22.860Z,14.63
2022-11-10T04:29:49.783Z,14.90
2022-11-10T04:32:16.780Z,14.13
2022-11-10T04:34:43.782Z,13.87
2022-11-10T04:37:10.717Z,14.33
2022-11-10T04:39:37.668Z,14.70
2022-11-10T04:42:04.757Z,13.03
2022-11-10T04:44:31.706Z,14.63
2022-11-10T04:46:58.608Z,14.20
2022-11-10T04:49:25.672Z,16.10
2022-11-10T04:51:52.694Z,18.10
2022-11-10T04:54:19.607Z,17.30
2022-11-10T04:56:46.565Z,15.83
2022-11-10T04:59:14.192Z,17.93
2022-11-10T05:01:41.210Z,16.20
2022-11-10T05:04:08.132Z,16.47
2022-11-10T05:06:35.096Z,19.00
2022-11-10T05:09:02.089Z,17.93
2022-11-10T05:11:29.080Z,16.33
2022-11-10T05:13:56.008Z,18.33
2022-11-10T05:16:23.044Z,16.17
2022-11-10T05:18:56.128Z,16.87
2022-11-10T05:21:23.048Z,17.27
2022-11-10T05:23:50.049Z,15.30
2022-11-10T05:26:18.773Z,15.20
2022-11-10T05:28:46.496Z,15.97
2022-11-10T05:31:14.244Z,16.97
2022-11-10T05:33:41.273Z,15.27
2022-11-10T05:36:08.909Z,14.93
2022-11-10T05:38:40.519Z,15.80
2022-11-10T05:41:10.543Z,15.90
2022-11-10T05:43:37.488Z,16.33
2022-11-10T05:46:04.547Z,16.30
2022-11-10T05:48:31.505Z,17.37
2022-11-10T05:50:58.432Z,15.33
2022-11-10T05:53:25.650Z,16.23
2022-11-10T05:55:52.762Z,16.63
2022-11-10T05:58:19.741Z,16.30
2022-11-10T06:00:46.728Z,14.03
2022-11-10T06:03:19.902Z,16.43
2022-11-10T06:05:47.621Z,15.00
2022-11-10T06:08:15.063Z,15.40
2022-11-10T06:10:42.078Z,16.00
2022-11-10T06:13:09.137Z,17.33
2022-11-10T06:15:36.630Z,17.23
2022-11-10T06:18:03.808Z,18.33
2022-11-10T06:20:31.067Z,18.03
2022-11-10T06:23:07.886Z,18.27
2022-11-10T06:25:37.579Z,18.30
2022-11-10T06:28:06.237Z,15.70
2022-11-10T06:30:36.028Z,16.43
2022-11-10T06:33:03.067Z,18.57
2022-11-10T06:35:31.113Z,16.10
2022-11-10T06:38:08.234Z,18.33
2022-11-10T06:40:35.221Z,18.30
2022-11-10T06:43:02.478Z,16.30
2022-11-10T06:45:29.768Z,16.67
2022-11-10T06:48:15.057Z,19.67
2022-11-10T06:50:42.268Z,19.07
2022-11-10T06:53:10.942Z,20.27
2022-11-10T06:55:37.853Z,21.53
2022-11-10T06:58:04.869Z,19.43
2022-11-10T07:00:32.332Z,21.87
2022-11-10T07:03:08.727Z,21.73
2022-11-10T07:05:37.484Z,22.37
2022-11-10T07:08:16.428Z,22.93
2022-11-10T07:10:52.331Z,20.00
2022-11-10T07:13:20.235Z,19.67
2022-11-10T07:15:47.490Z,23.93
2022-11-10T07:18:14.932Z,24.93
2022-11-10T07:20:41.927Z,23.60
2022-11-10T07:23:09.302Z,21.57
2022-11-10T07:25:37.934Z,20.43
2022-11-10T07:28:08.681Z,21.80
2022-11-10T07:30:37.119Z,24.13
2022-11-10T07:33:08.132Z,21.53
2022-11-10T07:35:35.999Z,20.97
2022-11-10T07:38:12.339Z,20.20
2022-11-10T07:40:39.410Z,26.27
2022-11-10T07:43:06.757Z,20.13
2022-11-10T07:45:34.258Z,19.77
2022-11-10T07:48:03.498Z,20.40
2022-11-10T07:50:30.723Z,20.27
2022-11-10T07:53:22.253Z,21.47
2022-11-10T07:55:49.424Z,23.30
2022-11-10T07:58:19.293Z,25.40
2022-11-10T08:00:47.369Z,24.00
2022-11-10T08:03:21.098Z,21.50
2022-11-10T08:05:48.312Z,20.17
2022-11-10T08:08:15.642Z,20.60
2022-11-10T08:10:43.788Z,20.00
2022-11-10T08:13:13.611Z,22.87
2022-11-10T08:15:41.708Z,25.33
2022-11-10T08:18:22.402Z,22.20
2022-11-10T08:20:50.077Z,22.43
2022-11-10T08:23:18.150Z,21.90
2022-11-10T08:25:46.957Z,23.40
2022-11-10T08:28:18.122Z,20.20
2022-11-10T08:30:47.350Z,23.77
2022-11-10T08:33:17.638Z,21.33
2022-11-10T08:35:48.403Z,20.27
2022-11-10T08:38:18.932Z,22.90
2022-11-10T08:40:46.042Z,23.80
2022-11-10T08:43:14.264Z,25.30
2022-11-10T08:45:43.895Z,21.57
2022-11-10T08:48:18.905Z,25.90
2022-11-10T08:50:47.693Z,27.97
2022-11-10T08:53:18.733Z,25.77
2022-11-10T08:55:46.269Z,23.83
2022-11-10T08:58:20.132Z,25.47
2022-11-10T09:00:47.772Z,29.73
2022-11-10T09:03:21.845Z,26.73
2022-11-10T09:05:56.677Z,25.77
2022-11-10T09:08:25.578Z,24.67
2022-11-10T09:10:53.414Z,21.63
2022-11-10T09:13:29.487Z,27.90
2022-11-10T09:16:02.499Z,28.60
2022-11-10T09:18:29.828Z,30.73
2022-11-10T09:20:57.281Z,24.60
2022-11-10T09:23:25.589Z,25.77
2022-11-10T09:25:55.515Z,25.17
2022-11-10T09:28:23.922Z,26.13
2022-11-10T09:30:52.809Z,24.93
2022-11-10T09:33:20.860Z,28.53
2022-11-10T09:35:48.492Z,30.13
2022-11-10T09:38:15.592Z,27.00
2022-11-10T09:41:09.757Z,29.43
2022-11-10T09:44:12.335Z,34.33
2022-11-10T09:46:46.905Z,29.10
2022-11-10T09:49:37.687Z,32.70
2022-11-10T09:52:05.858Z,29.63
2022-11-10T09:54:57.193Z,26.03
2022-11-10T09:57:27.417Z,28.73
2022-11-10T09:59:54.615Z,25.13
2022-11-10T10:02:31.422Z,29.23
2022-11-10T10:05:30.224Z,24.37
2022-11-10T10:08:54.195Z,28.73
2022-11-10T10:11:42.883Z,30.03
2022-11-10T10:14:42.967Z,26.47
2022-11-10T10:17:27.370Z,24.57
2022-11-10T10:20:10.069Z,19.30
2022-11-10T10:23:01.622Z,15.53
2022-11-10T10:25:29.424Z,16.50
2022-11-10T10:28:19.536Z,16.53
2022-11-10T10:30:47.137Z,17.70
2022-11-10T10:33:21.352Z,16.73
2022-11-10T10:35:51.047Z,15.10
2022-11-10T10:38:33.468Z,13.37
2022-11-10T10:41:23.704Z,17.77
2022-11-10T10:43:55.376Z,11.03
2022-11-10T10:46:32.815Z,11.43
2022-11-10T10:49:29.494Z,11.10
2022-11-10T10:52:25.025Z,10.03
2022-11-10T10:55:07.113Z,10.00
2022-11-10T10:57:34.083Z,8.30
2022-11-10T11:00:23.987Z,7.90
2022-11-10T11:03:26.320Z,8.57
2022-11-10T11:06:21.655Z,9.87
2022-11-10T11:09:25.077Z,10.10
2022-11-10T11:12:26.074Z,8.20
2022-11-10T11:15:21.208Z,14.57
2022-11-10T11:18:00.517Z,8.47
2022-11-10T11:21:10.837Z,8.50
2022-11-10T11:23:54.408Z,8.63
2022-11-10T11:26:44.511Z,9.43
2022-11-10T11:29:55.064Z,12.57
2022-11-10T11:32:46.068Z,12.97
2022-11-10T11:35:32.198Z,14.50
2022-11-10T11:38:23.642Z,13.47
2022-11-10T11:41:12.157Z,13.50
2022-11-10T11:43:51.283Z,14.93
2022-11-10T11:46:49.391Z,11.90
2022-11-10T11:49:53.562Z,12.20
2022-11-10T11:52:38.388Z,11.63
2022-11-10T11:55:11.322Z,12.40
2022-11-10T11:57:53.233Z,12.63
2022-11-10T12:00:22.278Z,11.83
2022-11-10T12:03:32.703Z,12.17
2022-11-10T12:06:35.982Z,11.63
2022-11-10T12:09:24.798Z,11.90
2022-11-10T12:12:17.375Z,10.60
2022-11-10T12:15:05.125Z,13.70
2022-11-10T12:17:57.672Z,13.40
2022-11-10T12:20:36.484Z,12.87
2022-11-10T12:23:18.080Z,11.60
2022-11-10T12:26:15.696Z,10.80
2022-11-10T12:28:54.727Z,11.40
2022-11-10T12:31:25.201Z,10.70
2022-11-10T12:34:06.641Z,11.00
2022-11-10T12:36:34.089Z,13.10
2022-11-10T12:39:34.232Z,10.50
2022-11-10T12:42:04.631Z,11.30
2022-11-10T12:44:40.566Z,10.23
2022-11-10T12:47:16.498Z,7.60
2022-11-10T12:50:24.165Z,8.70
2022-11-10T12:53:00.698Z,8.40
2022-11-10T12:55:45.215Z,8.00
2022-11-10T12:58:14.709Z,8.67
2022-11-10T13:01:01.560Z,10.17
2022-11-10T13:03:39.769Z,9.00
2022-11-10T13:06:29.985Z,8.50
2022-11-10T13:08:57.770Z,11.27
2022-11-10T13:11:33.358Z,8.13
2022-11-10T13:14:03.760Z,8.20
2022-11-10T13:16:40.663Z,12.40
2022-11-10T13:19:34.003Z,14.37
2022-11-10T13:22:10.255Z,9.23
2022-11-10T13:24:40.119Z,10.77
2022-11-10T13:27:25.143Z,9.30
2022-11-10T13:29:51.999Z,7.53
2022-11-10T13:32:27.737Z,7.30
2022-11-10T13:34:56.416Z,4.47
2022-11-10T13:37:35.515Z,6.27
2022-11-10T13:40:20.165Z,4.53
2022-11-10T13:42:59.211Z,4.73
2022-11-10T13:45:34.909Z,4.23
2022-11-10T13:48:13.770Z,7.87
2022-11-10T13:51:08.257Z,7.33
2022-11-10T13:54:06.090Z,6.70
2022-11-10T13:56:47.887Z,7.60
2022-11-10T13:59:31.070Z,7.70
2022-11-10T14:02:39.376Z,8.07
2022-11-10T14:05:30.945Z,8.80
2022-11-10T14:08:29.625Z,7.70
2022-11-10T14:11:05.169Z,8.00
2022-11-10T14:13:59.119Z,7.60
2022-11-10T14:16:31.703Z,7.17
2022-11-10T14:19:06.796Z,8.80
2022-11-10T14:21:39.561Z,7.50
2022-11-10T14:24:25.142Z,7.27
2022-11-10T14:26:55.365Z,8.77
2022-11-10T14:29:40.157Z,9.23
2022-11-10T14:32:27.760Z,9.07
2022-11-10T14:34:56.367Z,8.97
2022-11-10T14:37:26.539Z,9.07
2022-11-10T14:39:58.752Z,10.90
2022-11-10T14:42:34.800Z,9.50
2022-11-10T14:45:19.132Z,10.10
2022-11-10T14:47:59.390Z,10.60
2022-11-10T14:50:34.757Z,10.70
2022-11-10T14:53:23.730Z,10.63
2022-11-10T14:55:54.837Z,9.10
2022-11-10T14:58:33.806Z,8.80
2022-11-10T15:01:04.174Z,10.33
2022-11-10T15:03:42.061Z,10.43
2022-11-10T15:06:12.491Z,9.77
2022-11-10T15:08:41.286Z,10.73
2022-11-10T15:11:11.186Z,9.23
2022-11-10T15:13:39.685Z,9.93
2022-11-10T15:16:29.750Z,10.63
2022-11-10T15:19:20.645Z,10.30
2022-11-10T15:21:47.845Z,10.67
2022-11-10T15:24:14.824Z,9.53
2022-11-10T15:26:42.257Z,10.50
2022-11-10T15:29:23.956Z,12.13
2022-11-10T15:31:53.307Z,12.03
2022-11-10T15:34:41.925Z,11.77
2022-11-10T15:37:31.523Z,11.80
2022-11-10T15:40:35.641Z,13.73
2022-11-10T15:43:22.299Z,13.80
2022-11-10T15:45:57.620Z,16.10
2022-11-10T15:48:26.730Z,14.23
2022-11-10T15:50:56.180Z,13.50
2022-11-10T15:53:40.867Z,11.27
2022-11-10T15:56:09.517Z,12.77
2022-11-10T15:58:36.497Z,14.70
2022-11-10T16:01:04.120Z,15.70
2022-11-10T16:03:31.579Z,14.17
2022-11-10T16:05:58.805Z,15.13
2022-11-10T16:08:27.372Z,13.20
2022-11-10T16:10:57.392Z,21.90
2022-11-10T16:13:31.401Z,13.50
2022-11-10T16:16:01.600Z,14.00
2022-11-10T16:18:30.995Z,14.47
2022-11-10T16:20:58.127Z,14.47
2022-11-10T16:23:26.529Z,14.47
2022-11-10T16:25:56.753Z,11.20
2022-11-10T16:28:29.337Z,12.70
2022-11-10T16:30:56.473Z,12.37
2022-11-10T16:33:28.071Z,12.13
2022-11-10T16:35:56.507Z,11.80
2022-11-10T16:38:27.876Z,17.87
2022-11-10T16:41:01.919Z,13.03
2022-11-10T16:43:32.816Z,11.80
2022-11-10T16:46:05.935Z,12.00
2022-11-10T16:48:35.696Z,14.27
2022-11-10T16:51:03.013Z,13.83
2022-11-10T16:53:32.158Z,15.67
2022-11-10T16:55:59.097Z,13.77
2022-11-10T16:58:27.511Z,15.73
2022-11-10T17:00:59.776Z,16.40
2022-11-10T17:03:43.851Z,18.00
2022-11-10T17:06:15.758Z,18.67
2022-11-10T17:08:44.027Z,16.67
2022-11-10T17:11:10.962Z,16.77
2022-11-10T17:13:37.938Z,16.70
2022-11-10T17:16:29.122Z,19.23
2022-11-10T17:18:58.237Z,18.57
2022-11-10T17:21:31.580Z,21.63
2022-11-10T17:24:01.477Z,25.33
2022-11-10T17:26:29.926Z,19.60
2022-11-10T17:28:56.981Z,19.30
2022-11-10T17:31:23.969Z,23.77
2022-11-10T17:33:51.075Z,25.90
2022-11-10T17:36:21.369Z,25.33
2022-11-10T17:38:48.597Z,27.60
2022-11-10T17:41:18.637Z,23.00
2022-11-10T17:43:47.917Z,28.47
2022-11-10T17:46:15.681Z,22.47
2022-11-10T17:48:43.740Z,22.57
2022-11-10T17:51:18.578Z,22.27
2022-11-10T17:53:46.496Z,21.80
2022-11-10T17:56:13.833Z,23.23
2022-11-10T17:58:41.162Z,28.87
2022-11-10T18:01:17.887Z,25.83
2022-11-10T18:03:46.786Z,28.97
2022-11-10T18:06:20.102Z,28.97
2022-11-10T18:08:47.706Z,24.00
2022-11-10T18:11:18.692Z,25.77
2022-11-10T18:13:45.987Z,24.80
2022-11-10T18:16:14.517Z,30.03
2022-11-10T18:18:42.339Z,27.07
2022-11-10T18:21:10.667Z,31.20
2022-11-10T18:23:37.992Z,26.03
2022-11-10T18:26:08.370Z,27.30
2022-11-10T18:28:36.629Z,19.80
2022-11-10T18:31:13.287Z,21.10
2022-11-10T18:33:40.899Z,21.43
2022-11-10T18:36:09.393Z,18.83
2022-11-10T18:38:37.292Z,20.13
2022-11-10T18:41:25.936Z,21.70
2022-11-10T18:43:53.590Z,23.37
2022-11-10T18:46:21.013Z,23.50
2022-11-10T18:48:48.611Z,20.13
2022-11-10T18:51:17.299Z,21.30
2022-11-10T18:53:44.894Z,18.03
2022-11-10T18:56:12.712Z,17.20
2022-11-10T18:58:40.527Z,20.10
2022-11-10T19:01:12.817Z,15.43
2022-11-10T19:03:39.982Z,17.70
2022-11-10T19:06:14.278Z,22.33
2022-11-10T19:08:54.010Z,20.63
2022-11-10T19:11:23.674Z,20.70
2022-11-10T19:13:52.251Z,20.53
2022-11-10T19:16:20.717Z,21.27
2022-11-10T19:18:48.625Z,20.43
2022-11-10T19:21:22.202Z,18.63
2022-11-10T19:23:56.046Z,20.43
2022-11-10T19:26:25.639Z,23.27
2022-11-10T19:28:56.872Z,27.60
2022-11-10T19:31:28.373Z,23.33
2022-11-10T19:34:00.063Z,30.07
2022-11-10T19:36:29.338Z,31.43
2022-11-10T19:38:57.657Z,33.80
2022-11-10T19:41:41.166Z,23.20
2022-11-10T19:44:10.264Z,22.80
2022-11-10T19:46:40.357Z,21.80
2022-11-10T19:49:07.415Z,23.43
2022-11-10T19:51:35.617Z,21.93
2022-11-10T19:54:04.455Z,19.90
2022-11-10T19:56:36.019Z,16.60
2022-11-10T19:59:12.961Z,17.37
2022-11-10T20:01:52.739Z,16.93
2022-11-10T20:04:24.807Z,15.73
2022-11-10T20:07:20.658Z,15.83
2022-11-10T20:09:47.552Z,14.70
2022-11-10T20:12:16.565Z,15.17
2022-11-10T20:14:45.044Z,19.00
2022-11-10T20:17:12.098Z,13.53
2022-11-10T20:19:41.251Z,15.80
2022-11-10T20:22:13.837Z,15.50
2022-11-10T20:24:40.926Z,15.40
2022-11-10T20:27:08.206Z,16.73
2022-11-10T20:29:36.580Z,16.43
2022-11-10T20:32:04.891Z,17.43
2022-11-10T20:34:32.410Z,19.10
2022-11-10T20:36:59.418Z,17.47
2022-11-10T20:39:26.809Z,26.23
2022-11-10T20:41:55.705Z,23.40
2022-11-10T20:44:22.942Z,27.30
2022-11-10T20:46:54.558Z,22.37
2022-11-10T20:49:22.882Z,21.20
2022-11-10T20:51:52.824Z,22.70
2022-11-10T20:54:20.181Z,24.97
2022-11-10T20:56:47.924Z,20.93
2022-11-10T20:59:15.356Z,21.27
2022-11-10T21:01:43.328Z,19.43
2022-11-10T21:04:20.044Z,19.30
2022-11-10T21:06:57.486Z,21.90
2022-11-10T21:09:25.131Z,19.43
2022-11-10T21:12:11.527Z,18.53
2022-11-10T21:14:38.571Z,18.30
2022-11-10T21:17:06.423Z,19.03
2022-11-10T21:19:35.737Z,21.93
2022-11-10T21:22:03.071Z,16.17
2022-11-10T21:24:30.232Z,15.80
2022-11-10T21:26:58.489Z,14.70
2022-11-10T21:29:25.488Z,17.60
2022-11-10T21:31:52.633Z,17.83
2022-11-10T21:34:19.690Z,17.27
2022-11-10T21:36:48.256Z,20.53
2022-11-10T21:39:15.221Z,19.57
2022-11-10T21:41:42.327Z,21.47
2022-11-10T21:44:09.739Z,17.10
2022-11-10T21:46:36.669Z,15.30
2022-11-10T21:49:07.671Z,15.80
2022-11-10T21:51:35.627Z,16.63
2022-11-10T21:54:02.802Z,23.07
2022-11-10T21:56:29.737Z,16.67
2022-11-10T21:58:58.124Z,16.77
2022-11-10T22:01:25.234Z,16.90
2022-11-10T22:03:52.780Z,16.40
2022-11-10T22:06:19.866Z,18.80
2022-11-10T22:08:48.346Z,16.07
2022-11-10T22:11:38.197Z,16.23
2022-11-10T22:14:41.907Z,15.20
2022-11-10T22:17:34.343Z,21.23
2022-11-10T22:20:01.813Z,16.17
2022-11-10T22:22:28.826Z,15.13
2022-11-10T22:24:55.832Z,15.37
2022-11-10T22:27:22.797Z,16.13
2022-11-10T22:29:49.900Z,20.43
2022-11-10T22:32:16.900Z,14.93
2022-11-10T22:34:43.886Z,14.90
2022-11-10T22:37:11.574Z,14.43
2022-11-10T22:39:57.969Z,14.37
2022-11-10T22:42:43.627Z,14.60
2022-11-10T22:45:10.960Z,14.37
2022-11-10T22:47:56.745Z,12.50
2022-11-10T22:50:23.762Z,13.60
2022-11-10T22:52:50.741Z,14.80
2022-11-10T22:55:18.642Z,13.63
2022-11-10T22:57:45.657Z,27.93
2022-11-10T23:00:14.033Z,15.10
2022-11-10T23:02:41.217Z,12.43
2022-11-10T23:05:08.640Z,12.80
2022-11-10T23:07:35.644Z,18.40
2022-11-10T23:10:03.017Z,11.27
2022-11-10T23:12:29.976Z,10.30
2022-11-10T23:14:56.958Z,11.17
2022-11-10T23:17:23.916Z,10.50
2022-11-10T23:19:50.806Z,11.90
2022-11-10T23:22:18.287Z,11.33
2022-11-10T23:24:45.283Z,10.97
2022-11-10T23:27:12.176Z,10.20
2022-11-10T23:29:39.143Z,11.70
2022-11-10T23:32:06.213Z,9.33
2022-11-10T23:34:33.125Z,9.63
2022-11-10T23:37:00.065Z,9.20
2022-11-10T23:39:27.545Z,9.70
2022-11-10T23:41:54.511Z,10.40
2022-11-10T23:44:21.895Z,12.83
2022-11-10T23:46:48.869Z,18.33
2022-11-10T23:49:15.771Z,17.17
2022-11-10T23:51:42.853Z,22.13
2022-11-10T23:54:10.069Z,14.93
2022-11-10T23:56:37.144Z,16.03
2022-11-10T23:59:04.293Z,18.30
